Time;durP1;ratioP1;P1;durP2;ratioP2;P2;SDS_P1;SDS_P2;PMS_P1;PMS_P2;Temp;Humidity;BMP_temperature;BMP_pressure;BME280_temperature;BME280_humidity;BME280_pressure;Samples;Min_cycle;Max_cycle;Signal;HPM_P1;HPM_P2
2021/11/09 00:01:16;;;;;;;0.30;0.30;;;2.20;99.90;;;;;;4977056;28;20477;-79
2021/11/09 00:03:48;;;;;;;0.30;0.30;;;2.20;99.90;;;;;;4976717;28;20474;-79
2021/11/09 00:06:21;;;;;;;0.40;0.40;;;2.20;99.90;;;;;;4976550;28;20433;-79
2021/11/09 00:08:54;;;;;;;0.53;0.53;;;2.10;99.90;;;;;;4977047;28;20469;-79
2021/11/09 00:11:24;;;;;;;0.30;0.30;;;2.10;99.90;;;;;;4977218;28;20791;-79
2021/11/09 00:13:51;;;;;;;0.30;0.30;;;2.10;99.90;;;;;;4976858;28;20473;-79
2021/11/09 00:16:18;;;;;;;0.30;0.30;;;2.10;99.90;;;;;;4976862;28;20453;-79
2021/11/09 00:18:48;;;;;;;0.77;0.77;;;2.10;99.90;;;;;;4976622;28;20442;-79
2021/11/09 00:21:16;;;;;;;0.30;0.30;;;2.10;99.90;;;;;;4976376;28;20512;-79
2021/11/09 00:23:42;;;;;;;0.77;0.50;;;2.10;99.90;;;;;;4976666;28;20501;-79
2021/11/09 00:26:09;;;;;;;2.93;1.07;;;2.10;99.90;;;;;;4976659;28;20438;-79
2021/11/09 00:28:37;;;;;;;0.30;0.30;;;2.10;99.90;;;;;;4976637;28;20453;-79
2021/11/09 00:31:05;;;;;;;0.30;0.30;;;2.10;99.90;;;;;;4976508;28;20445;-79
2021/11/09 00:33:31;;;;;;;0.30;0.30;;;2.00;99.90;;;;;;4976499;28;20473;-79
2021/11/09 00:35:58;;;;;;;0.30;0.30;;;2.00;99.90;;;;;;4976496;28;20453;-79
2021/11/09 00:38:25;;;;;;;0.30;0.30;;;2.00;99.90;;;;;;4976441;28;20458;-79
2021/11/09 00:40:53;;;;;;;0.40;0.30;;;2.10;99.90;;;;;;4976308;28;20481;-79
2021/11/09 00:43:21;;;;;;;0.30;0.30;;;2.10;99.90;;;;;;4976294;28;20477;-79
2021/11/09 00:45:49;;;;;;;0.43;0.40;;;2.10;99.90;;;;;;4976562;28;20453;-79
2021/11/09 00:48:16;;;;;;;0.50;0.50;;;2.10;99.90;;;;;;4976306;28;20457;-79
2021/11/09 00:50:44;;;;;;;1.10;1.00;;;2.10;99.90;;;;;;4975993;28;20445;-79
2021/11/09 00:53:12;;;;;;;0.37;0.37;;;2.10;99.90;;;;;;4976078;28;20527;-79
2021/11/09 00:55:41;;;;;;;0.30;0.30;;;2.10;99.90;;;;;;4975634;28;20997;-79
2021/11/09 00:58:08;;;;;;;0.30;0.27;;;2.00;99.90;;;;;;4976077;28;20454;-79
2021/11/09 01:00:36;;;;;;;0.67;0.67;;;2.00;99.90;;;;;;4975655;28;20478;-79
2021/11/09 01:03:07;;;;;;;0.40;0.40;;;2.00;99.90;;;;;;4975911;28;20477;-79
2021/11/09 01:05:35;;;;;;;0.40;0.40;;;1.90;99.90;;;;;;4975947;28;20441;-79
2021/11/09 01:08:04;;;;;;;0.30;0.30;;;1.90;99.90;;;;;;4975680;28;20437;-79
2021/11/09 01:10:34;;;;;;;0.30;0.30;;;1.90;99.90;;;;;;4975552;28;20949;-79
2021/11/09 01:13:01;;;;;;;0.67;0.67;;;1.90;99.90;;;;;;4975463;28;21104;-79
2021/11/09 01:15:30;;;;;;;0.30;0.30;;;1.90;99.90;;;;;;4975787;28;20460;-79
2021/11/09 01:17:58;;;;;;;0.40;0.40;;;2.00;99.90;;;;;;4974651;28;20441;-79
2021/11/09 01:20:28;;;;;;;0.30;0.30;;;2.00;99.90;;;;;;4975475;28;20865;-79
2021/11/09 01:22:55;;;;;;;0.40;0.40;;;2.00;99.90;;;;;;4975604;28;20511;-79
2021/11/09 01:25:24;;;;;;;0.83;0.83;;;1.90;99.90;;;;;;4975296;28;20445;-79
2021/11/09 01:27:51;;;;;;;0.50;0.50;;;1.90;99.90;;;;;;4975521;28;20540;-79
2021/11/09 01:30:21;;;;;;;0.30;0.20;;;1.90;99.90;;;;;;4975445;28;20460;-79
2021/11/09 01:32:50;;;;;;;0.30;0.30;;;1.90;99.90;;;;;;4975355;28;20499;-79
2021/11/09 01:35:18;;;;;;;0.53;0.53;;;1.90;99.90;;;;;;4975700;28;20449;-79
2021/11/09 01:37:46;;;;;;;0.50;0.50;;;1.90;99.90;;;;;;4975327;28;20456;-79
2021/11/09 01:40:14;;;;;;;0.30;0.30;;;1.90;99.90;;;;;;4975292;28;20460;-79
2021/11/09 01:42:40;;;;;;;0.30;0.30;;;1.90;99.90;;;;;;4974895;28;20953;-79
2021/11/09 01:45:10;;;;;;;0.30;0.30;;;1.90;99.90;;;;;;4975480;28;20449;-79
2021/11/09 01:47:38;;;;;;;0.30;0.30;;;1.90;99.90;;;;;;4974997;28;20427;-79
2021/11/09 01:50:07;;;;;;;0.53;0.50;;;2.00;99.90;;;;;;4975147;28;20446;-79
2021/11/09 01:52:35;;;;;;;0.30;0.20;;;2.00;99.90;;;;;;4974772;28;20960;-79
2021/11/09 01:55:04;;;;;;;0.30;0.30;;;2.10;99.90;;;;;;4974624;28;20888;-79
2021/11/09 01:57:31;;;;;;;0.50;0.37;;;2.10;99.90;;;;;;4974996;28;20441;-79
2021/11/09 02:00:03;;;;;;;0.33;0.33;;;2.10;99.90;;;;;;4974691;28;20457;-79
2021/11/09 02:02:29;;;;;;;0.37;0.37;;;2.20;99.90;;;;;;4974870;28;20448;-79
2021/11/09 02:04:56;;;;;;;0.70;0.70;;;2.20;99.90;;;;;;4974935;28;20457;-79
2021/11/09 02:07:23;;;;;;;0.30;0.30;;;2.20;99.90;;;;;;4975195;28;20454;-79
2021/11/09 02:09:50;;;;;;;0.30;0.20;;;2.20;99.90;;;;;;4974887;28;20457;-79
2021/11/09 02:12:18;;;;;;;0.30;0.30;;;2.20;99.90;;;;;;4974801;28;20449;-79
2021/11/09 02:14:44;;;;;;;1.23;1.03;;;2.20;99.90;;;;;;4974428;28;20985;-79
2021/11/09 02:17:11;;;;;;;0.30;0.30;;;2.20;99.90;;;;;;4975052;28;20437;-79
2021/11/09 02:19:39;;;;;;;0.30;0.30;;;2.20;99.90;;;;;;4974708;28;20446;-79
2021/11/09 02:22:08;;;;;;;0.30;0.20;;;2.20;99.90;;;;;;4974480;28;20524;-79
2021/11/09 02:24:35;;;;;;;0.40;0.40;;;2.20;99.90;;;;;;4974380;28;20461;-79
2021/11/09 02:27:03;;;;;;;0.40;0.40;;;2.20;99.90;;;;;;4974694;28;20507;-79
2021/11/09 02:29:30;;;;;;;0.30;0.30;;;2.20;99.90;;;;;;4974403;28;20457;-79
2021/11/09 02:31:57;;;;;;;0.30;0.20;;;2.20;99.90;;;;;;4974593;28;20452;-79
2021/11/09 02:34:24;;;;;;;0.50;0.50;;;2.10;99.90;;;;;;4974501;28;20488;-79
2021/11/09 02:36:50;;;;;;;1.43;0.83;;;2.00;99.90;;;;;;4974279;28;20434;-79
2021/11/09 02:39:19;;;;;;;0.97;0.97;;;2.00;99.90;;;;;;4974211;28;20452;-78
2021/11/09 02:41:46;;;;;;;0.30;0.30;;;1.90;99.90;;;;;;4974420;28;20481;-79
2021/11/09 02:44:13;;;;;;;0.30;0.20;;;1.90;99.90;;;;;;4974658;28;20465;-79
2021/11/09 02:46:47;;;;;;;0.30;0.30;;;2.00;99.90;;;;;;4974483;28;20450;-79
2021/11/09 02:49:20;;;;;;;0.30;0.30;;;2.00;99.90;;;;;;4974447;28;20445;-79
2021/11/09 02:51:50;;;;;;;0.73;0.73;;;1.90;99.90;;;;;;4974155;28;20915;-79
2021/11/09 02:54:22;;;;;;;2.23;1.90;;;1.90;99.90;;;;;;4974285;28;20470;-79
2021/11/09 02:56:53;;;;;;;0.30;0.30;;;1.90;99.90;;;;;;4974821;28;20464;-79
2021/11/09 02:59:32;;;;;;;1.47;0.57;;;1.90;99.90;;;;;;4974405;28;20445;-79
2021/11/09 03:02:04;;;;;;;0.30;0.30;;;1.90;99.90;;;;;;4974331;28;20465;-79
2021/11/09 03:04:41;;;;;;;0.50;0.50;;;1.90;99.90;;;;;;4974304;28;20551;-79
2021/11/09 03:07:10;;;;;;;0.40;0.40;;;1.90;99.90;;;;;;4974333;28;20524;-79
2021/11/09 03:09:49;;;;;;;0.30;0.30;;;1.90;99.90;;;;;;4974230;28;20807;-79
2021/11/09 03:12:16;;;;;;;0.50;0.50;;;1.90;99.90;;;;;;4974323;28;20520;-79
2021/11/09 03:14:43;;;;;;;0.50;0.50;;;1.90;99.90;;;;;;4973859;28;20989;-79
2021/11/09 03:17:15;;;;;;;0.50;0.50;;;1.80;99.90;;;;;;4974203;28;20460;-79
2021/11/09 03:19:45;;;;;;;0.30;0.30;;;1.90;99.90;;;;;;4973926;28;20449;-79
2021/11/09 03:44:36;;;;;;;0.40;0.40;;;1.80;99.90;;;;;;4977231;28;20452;-79
2021/11/09 03:47:05;;;;;;;0.40;0.40;;;1.80;99.90;;;;;;4977449;28;20448;-78
2021/11/09 03:49:35;;;;;;;0.30;0.30;;;1.70;99.90;;;;;;4977385;28;20456;-78
2021/11/09 03:52:07;;;;;;;0.30;0.30;;;1.70;99.90;;;;;;4977169;28;20852;-79
2021/11/09 03:54:35;;;;;;;0.40;0.37;;;1.70;99.90;;;;;;4976780;28;20862;-79
2021/11/09 03:57:08;;;;;;;0.77;0.77;;;1.70;99.90;;;;;;4977279;28;20464;-79
2021/11/09 03:59:52;;;;;;;0.30;0.30;;;1.60;99.90;;;;;;4977233;28;20524;-79
2021/11/09 04:02:25;;;;;;;0.30;0.30;;;1.60;99.90;;;;;;4977102;28;20469;-79
2021/11/09 04:04:55;;;;;;;0.30;0.30;;;1.70;99.90;;;;;;4977010;28;20537;-79
2021/11/09 04:07:28;;;;;;;0.63;0.63;;;1.70;99.90;;;;;;4976724;28;20474;-78
2021/11/09 04:10:06;;;;;;;0.30;0.30;;;1.70;99.90;;;;;;4977263;28;20521;-79
2021/11/09 04:12:44;;;;;;;0.30;0.30;;;1.70;99.90;;;;;;4976628;28;20949;-79
2021/11/09 04:18:09;;;;;;;0.30;0.20;;;1.60;99.90;;;;;;4963119;28;20468;-79
2021/11/09 04:20:45;;;;;;;1.13;1.13;;;1.60;99.90;;;;;;4976861;28;20492;-83
2021/11/09 04:28:53;;;;;;;0.60;0.60;;;1.50;99.90;;;;;;4937620;28;20444;-83
2021/11/09 04:31:34;;;;;;;0.30;0.30;;;1.40;99.90;;;;;;4976722;28;20801;-83
2021/11/09 04:53:28;;;;;;;0.83;0.83;;;1.40;99.90;;;;;;4904213;28;20838;-81
2021/11/09 05:01:50;;;;;;;0.30;0.30;;;1.40;99.90;;;;;;4897449;29;20488;-80
2021/11/09 05:09:52;;;;;;;0.30;0.30;;;1.40;99.90;;;;;;4976285;28;21009;-80
2021/11/09 05:12:18;;;;;;;0.30;0.30;;;1.40;99.90;;;;;;4976118;28;20442;-80
2021/11/09 05:14:45;;;;;;;0.30;0.30;;;1.40;99.90;;;;;;4975764;28;20454;-80
2021/11/09 05:17:13;;;;;;;0.30;0.30;;;1.40;99.90;;;;;;4975674;28;20450;-81
2021/11/09 05:19:40;;;;;;;0.30;0.30;;;1.40;99.90;;;;;;4976368;28;20449;-81
2021/11/09 05:22:07;;;;;;;0.30;0.30;;;1.40;99.90;;;;;;4975580;28;20496;-81
2021/11/09 05:24:34;;;;;;;0.30;0.30;;;1.40;99.90;;;;;;4975626;28;20465;-81
2021/11/09 05:27:01;;;;;;;0.30;0.20;;;1.40;99.90;;;;;;4975306;28;20441;-81
2021/11/09 05:29:28;;;;;;;0.40;0.40;;;1.40;99.90;;;;;;4975542;28;20520;-81
2021/11/09 05:31:59;;;;;;;0.30;0.30;;;1.40;99.90;;;;;;4975734;28;20501;-80
2021/11/09 05:34:29;;;;;;;0.30;0.30;;;1.40;99.90;;;;;;4975407;28;20528;-81
2021/11/09 05:36:56;;;;;;;0.30;0.30;;;1.30;99.90;;;;;;4975448;28;20469;-81
2021/11/09 05:39:30;;;;;;;0.30;0.30;;;1.30;99.90;;;;;;4975244;28;20468;-81
2021/11/09 05:41:57;;;;;;;0.30;0.30;;;1.30;99.90;;;;;;4975318;28;20476;-81
2021/11/09 05:44:24;;;;;;;0.30;0.30;;;1.30;99.90;;;;;;4975208;28;20474;-81
2021/11/09 05:46:50;;;;;;;0.80;0.57;;;1.40;99.90;;;;;;4975221;28;20456;-81
2021/11/09 05:49:17;;;;;;;0.30;0.30;;;1.30;99.90;;;;;;4974938;28;20444;-81
2021/11/09 05:51:46;;;;;;;0.40;0.40;;;1.30;99.90;;;;;;4975187;28;20437;-81
2021/11/09 05:54:14;;;;;;;0.50;0.50;;;1.40;99.90;;;;;;4974554;28;20454;-81
2021/11/09 05:56:41;;;;;;;0.47;0.47;;;1.30;99.90;;;;;;4974852;28;20429;-81
2021/11/09 05:59:07;;;;;;;0.33;0.33;;;1.30;99.90;;;;;;4975029;28;20442;-81
2021/11/09 06:01:34;;;;;;;0.30;0.30;;;1.30;99.90;;;;;;4975061;28;20453;-81
2021/11/09 06:04:01;;;;;;;0.40;0.40;;;1.30;99.90;;;;;;4974195;28;20480;-81
2021/11/09 06:06:28;;;;;;;0.40;0.40;;;1.30;99.90;;;;;;4974981;28;20437;-81
2021/11/09 06:08:56;;;;;;;0.40;0.40;;;1.30;99.90;;;;;;4974558;28;20457;-81
2021/11/09 06:11:23;;;;;;;0.77;0.77;;;1.30;99.90;;;;;;4975604;28;20464;-81
2021/11/09 06:13:50;;;;;;;1.07;1.07;;;1.30;99.90;;;;;;4974746;28;20470;-81
2021/11/09 06:16:17;;;;;;;0.30;0.30;;;1.30;99.90;;;;;;4974471;28;20462;-81
2021/11/09 06:18:44;;;;;;;0.40;0.40;;;1.30;99.90;;;;;;4974871;28;20453;-81
2021/11/09 06:21:11;;;;;;;0.30;0.30;;;1.30;99.90;;;;;;4974684;28;20445;-81
2021/11/09 06:23:38;;;;;;;0.30;0.30;;;1.30;99.90;;;;;;4974540;28;20493;-81
2021/11/09 06:26:06;;;;;;;0.33;0.33;;;1.30;99.90;;;;;;4974642;28;20465;-81
2021/11/09 06:28:33;;;;;;;0.30;0.30;;;1.30;99.90;;;;;;4974330;28;20460;-81
2021/11/09 06:31:00;;;;;;;1.37;1.37;;;1.30;99.90;;;;;;4974591;28;20468;-81
2021/11/09 06:33:27;;;;;;;0.40;0.33;;;1.30;99.90;;;;;;4974500;28;20477;-81
2021/11/09 06:35:54;;;;;;;0.40;0.37;;;1.30;99.90;;;;;;4974296;28;20442;-81
2021/11/09 06:38:21;;;;;;;0.30;0.20;;;1.30;99.90;;;;;;4974560;28;20464;-81
2021/11/09 06:40:48;;;;;;;0.70;0.70;;;1.20;99.90;;;;;;4975166;28;20464;-81
2021/11/09 06:43:16;;;;;;;0.30;0.30;;;1.20;99.90;;;;;;4974379;28;20476;-81
2021/11/09 06:45:44;;;;;;;0.30;0.20;;;1.30;99.90;;;;;;4974555;28;20981;-81
2021/11/09 06:48:10;;;;;;;0.47;0.47;;;1.20;99.90;;;;;;4974491;28;20461;-81
2021/11/09 06:50:38;;;;;;;1.43;0.40;;;1.20;99.90;;;;;;4974437;28;20461;-81
2021/11/09 06:53:05;;;;;;;0.30;0.30;;;1.20;99.90;;;;;;4974255;28;20505;-81
2021/11/09 06:55:35;;;;;;;0.30;0.30;;;1.30;99.90;;;;;;4974163;28;20861;-81
2021/11/09 06:58:02;;;;;;;0.53;0.53;;;1.20;99.90;;;;;;4974418;28;20458;-81
2021/11/09 07:00:30;;;;;;;0.83;0.60;;;1.20;99.90;;;;;;4974582;28;20434;-81
2021/11/09 07:02:57;;;;;;;0.40;0.40;;;1.30;99.90;;;;;;4974630;28;20489;-81
2021/11/09 07:05:25;;;;;;;2.50;2.40;;;1.30;99.90;;;;;;4974676;28;20453;-81
2021/11/09 07:11:11;;;;;;;0.30;0.30;;;1.40;99.90;;;;;;4933648;29;20419;-84
2021/11/09 07:13:40;;;;;;;0.40;0.40;;;1.50;99.90;;;;;;4958174;28;20468;-84
2021/11/09 07:16:09;;;;;;;0.30;0.30;;;1.50;99.90;;;;;;4975731;28;20983;-84
2021/11/09 07:18:36;;;;;;;0.30;0.30;;;1.50;99.90;;;;;;4978383;28;20464;-84
2021/11/09 07:21:03;;;;;;;0.50;0.50;;;1.60;99.90;;;;;;4978158;28;20468;-84
2021/11/09 07:23:30;;;;;;;1.00;1.00;;;1.60;99.90;;;;;;4977633;28;20496;-84
2021/11/09 07:25:57;;;;;;;0.80;0.80;;;1.60;99.90;;;;;;4977867;28;20445;-83
2021/11/09 07:28:23;;;;;;;0.30;0.30;;;1.60;99.90;;;;;;4977878;28;20437;-84
2021/11/09 07:30:57;;;;;;;0.37;0.37;;;1.70;99.90;;;;;;4977548;28;20453;-84
2021/11/09 07:33:26;;;;;;;0.30;0.30;;;1.70;99.90;;;;;;4977672;28;20989;-84
2021/11/09 07:35:53;;;;;;;0.30;0.30;;;1.70;99.90;;;;;;4977682;28;20441;-84
2021/11/09 07:38:20;;;;;;;0.40;0.40;;;1.80;99.90;;;;;;4977539;28;20468;-83
2021/11/09 07:40:48;;;;;;;3.13;0.60;;;1.80;99.90;;;;;;4977598;28;20446;-84
2021/11/09 07:43:15;;;;;;;0.30;0.30;;;1.80;99.90;;;;;;4977062;28;20497;-84
2021/11/09 07:45:42;;;;;;;0.50;0.50;;;1.90;99.90;;;;;;4977554;28;20449;-84
2021/11/09 07:48:09;;;;;;;0.30;0.30;;;1.90;99.90;;;;;;4977472;28;20456;-85
2021/11/09 07:50:37;;;;;;;0.30;0.30;;;1.90;99.90;;;;;;4977182;28;20437;-85
2021/11/09 07:53:04;;;;;;;0.30;0.30;;;1.90;99.90;;;;;;4977278;28;20465;-85
2021/11/09 07:55:38;;;;;;;0.30;0.30;;;2.00;99.90;;;;;;4976846;28;20996;-84
2021/11/09 07:58:10;;;;;;;0.30;0.30;;;2.00;99.90;;;;;;4977261;28;20437;-84
2021/11/09 08:00:40;;;;;;;0.30;0.30;;;2.10;99.90;;;;;;4977161;28;20804;-84
2021/11/09 08:03:10;;;;;;;1.23;0.70;;;2.20;99.90;;;;;;4977052;28;20567;-84
2021/11/09 08:05:59;;;;;;;0.60;0.60;;;2.30;99.90;;;;;;4977044;28;20529;-84
2021/11/09 08:08:28;;;;;;;0.40;0.40;;;2.40;99.90;;;;;;4977358;28;20507;-84
2021/11/09 08:10:55;;;;;;;0.30;0.30;;;2.60;99.90;;;;;;4977090;28;20535;-84
2021/11/09 08:13:22;;;;;;;0.70;0.40;;;2.70;99.90;;;;;;4977127;28;20501;-84
2021/11/09 08:15:49;;;;;;;0.30;0.30;;;2.90;99.90;;;;;;4977058;28;20472;-84
2021/11/09 08:18:16;;;;;;;0.30;0.20;;;3.00;99.90;;;;;;4976600;28;20976;-84
2021/11/09 08:20:44;;;;;;;0.73;0.73;;;3.20;99.90;;;;;;4976960;28;20504;-78
2021/11/09 08:23:12;;;;;;;0.40;0.40;;;3.40;99.90;;;;;;4976658;28;20911;-79
2021/11/09 08:25:40;;;;;;;0.50;0.50;;;3.60;99.90;;;;;;4976651;28;20938;-79
2021/11/09 08:28:07;;;;;;;0.30;0.30;;;3.80;99.90;;;;;;4976273;28;20445;-79
2021/11/09 08:30:33;;;;;;;0.30;0.20;;;3.90;99.90;;;;;;4976367;28;20968;-79
2021/11/09 08:33:03;;;;;;;0.40;0.40;;;4.20;99.90;;;;;;4976338;28;20485;-79
2021/11/09 08:35:31;;;;;;;0.30;0.20;;;4.60;99.90;;;;;;4976542;28;20445;-79
2021/11/09 08:37:59;;;;;;;0.30;0.30;;;5.00;99.90;;;;;;4976497;28;20462;-79
2021/11/09 08:40:26;;;;;;;0.40;0.40;;;5.50;99.90;;;;;;4976473;28;20449;-79
2021/11/09 08:42:55;;;;;;;0.33;0.33;;;6.10;99.90;;;;;;4976271;28;20520;-79
2021/11/09 08:45:32;;;;;;;0.40;0.30;;;7.10;99.90;;;;;;4976362;28;20540;-78
2021/11/09 08:48:06;;;;;;;0.30;0.20;;;8.10;99.90;;;;;;4976075;28;20813;-78
2021/11/09 08:50:33;;;;;;;0.40;0.40;;;9.20;99.90;;;;;;4976309;28;20446;-78
2021/11/09 08:53:06;;;;;;;0.97;0.97;;;10.10;99.90;;;;;;4976110;28;20505;-79
2021/11/09 08:55:43;;;;;;;0.40;0.33;;;11.10;99.90;;;;;;4975743;28;21084;-78
2021/11/09 09:06:18;;;;;;;0.40;0.40;;;14.90;95.70;;;;;;4975744;28;20428;-79
2021/11/09 09:08:46;;;;;;;0.60;0.30;;;15.40;92.40;;;;;;4975962;28;20453;-79
2021/11/09 09:11:13;;;;;;;1.07;0.50;;;15.70;90.20;;;;;;4975905;28;20878;-83
2021/11/09 09:13:40;;;;;;;0.90;0.90;;;15.80;87.40;;;;;;4975752;28;20556;-84
2021/11/09 09:16:07;;;;;;;0.43;0.43;;;15.80;83.40;;;;;;4975953;28;20472;-84
2021/11/09 09:18:34;;;;;;;1.07;0.50;;;15.30;83.40;;;;;;4975812;28;20552;-84
2021/11/09 09:21:08;;;;;;;0.60;0.40;;;15.40;83.10;;;;;;4975422;28;20929;-85
2021/11/09 09:23:40;;;;;;;0.50;0.40;;;15.70;82.20;;;;;;4975674;28;20485;-83
2021/11/09 09:26:18;;;;;;;1.50;0.37;;;15.90;80.10;;;;;;4975994;28;20835;-84
2021/11/09 09:29:10;;;;;;;1.53;0.57;;;15.50;78.10;;;;;;4975782;28;20969;-85
2021/11/09 09:54:07;;;;;;;0.37;0.33;;;15.80;74.80;;;;;;4974933;28;20479;-81
2021/11/09 09:56:41;;;;;;;0.60;0.60;;;15.10;76.00;;;;;;4975137;28;20948;-80
2021/11/09 09:59:12;;;;;;;1.27;0.53;;;14.40;78.00;;;;;;4975234;28;20421;-81
2021/11/09 10:01:42;;;;;;;0.30;0.30;;;13.70;80.60;;;;;;4974981;28;20487;-81
2021/11/09 10:04:31;;;;;;;3.43;0.67;;;13.00;81.70;;;;;;4974933;28;20497;-81
2021/11/09 10:06:58;;;;;;;0.30;0.30;;;12.10;84.10;;;;;;4975444;28;20532;-81
2021/11/09 10:09:34;;;;;;;0.53;0.53;;;11.30;86.90;;;;;;4975806;28;20823;-84
2021/11/09 10:12:16;;;;;;;1.03;0.47;;;10.80;90.00;;;;;;4975221;28;20421;-81
2021/11/09 10:14:44;;;;;;;1.37;0.60;;;10.50;90.70;;;;;;4974765;28;20465;-81
2021/11/09 10:17:12;;;;;;;0.30;0.30;;;10.30;91.70;;;;;;4974735;28;20453;-81
2021/11/09 10:19:39;;;;;;;0.30;0.30;;;10.20;92.40;;;;;;4974724;28;20471;-84
2021/11/09 10:22:21;;;;;;;0.30;0.30;;;10.20;92.10;;;;;;4974312;28;20949;-80
2021/11/09 10:24:52;;;;;;;0.40;0.37;;;10.10;92.70;;;;;;4974392;28;20520;-82
2021/11/09 10:27:20;;;;;;;0.60;0.40;;;10.10;93.20;;;;;;4974676;28;20804;-81
2021/11/09 10:29:51;;;;;;;0.40;0.30;;;10.00;93.30;;;;;;4974386;28;20930;-81
2021/11/09 10:32:21;;;;;;;0.70;0.70;;;10.00;93.70;;;;;;4974738;28;20909;-81
2021/11/09 10:34:49;;;;;;;0.30;0.30;;;9.80;94.60;;;;;;4974349;28;20469;-81
2021/11/09 10:37:22;;;;;;;2.40;0.50;;;9.70;95.00;;;;;;4974560;28;20476;-82
2021/11/09 10:39:51;;;;;;;0.47;0.40;;;9.50;95.60;;;;;;4974582;28;20438;-81
2021/11/09 10:42:20;;;;;;;1.23;0.30;;;9.50;96.30;;;;;;4975146;28;20822;-81
2021/11/09 10:44:55;;;;;;;0.70;0.40;;;9.40;97.00;;;;;;4974103;28;20492;-80
2021/11/09 10:47:24;;;;;;;0.37;0.30;;;9.40;97.00;;;;;;4974524;28;20471;-80
2021/11/09 10:49:54;;;;;;;0.60;0.40;;;9.20;97.10;;;;;;4976406;28;20456;-80
2021/11/09 10:52:27;;;;;;;0.70;0.43;;;9.20;97.00;;;;;;4978465;28;20816;-86
2021/11/09 10:54:59;;;;;;;0.40;0.30;;;9.10;97.70;;;;;;4978781;28;20483;-86
2021/11/09 10:57:38;;;;;;;0.80;0.40;;;9.10;98.00;;;;;;4979178;28;20508;-84
2021/11/09 11:00:21;;;;;;;1.17;0.60;;;9.20;97.70;;;;;;4978252;28;20449;-84
2021/11/09 11:05:34;;;;;;;0.33;0.27;;;9.10;98.30;;;;;;4978395;28;20413;-85
2021/11/09 11:08:01;;;;;;;2.20;0.40;;;9.00;98.30;;;;;;4978458;28;20507;-85
2021/11/09 11:10:35;;;;;;;0.33;0.33;;;8.90;98.60;;;;;;4978508;28;20496;-84
2021/11/09 11:13:21;;;;;;;0.40;0.30;;;8.90;98.90;;;;;;4978717;28;20481;-84
2021/11/09 11:16:03;;;;;;;0.50;0.30;;;8.90;99.20;;;;;;4978169;28;20433;-86
2021/11/09 11:18:36;;;;;;;0.40;0.30;;;8.90;99.90;;;;;;4978218;28;20441;-86
2021/11/09 11:21:03;;;;;;;0.57;0.30;;;8.80;99.60;;;;;;4978544;28;20820;-84
2021/11/09 11:23:31;;;;;;;0.30;0.30;;;8.90;99.80;;;;;;4978535;28;20500;-82
2021/11/09 11:25:59;;;;;;;0.40;0.40;;;8.90;99.60;;;;;;4978104;28;20434;-84
2021/11/09 11:28:26;;;;;;;0.40;0.30;;;8.80;99.90;;;;;;4977770;28;20445;-84
2021/11/09 11:30:55;;;;;;;0.30;0.30;;;8.90;99.90;;;;;;4977820;28;20460;-84
2021/11/09 11:33:23;;;;;;;0.63;0.30;;;9.00;99.90;;;;;;4977743;28;20470;-84
2021/11/09 11:35:51;;;;;;;1.53;0.30;;;9.10;99.90;;;;;;4977757;28;20449;-84
2021/11/09 11:38:20;;;;;;;0.30;0.27;;;9.00;99.70;;;;;;4977896;28;20448;-85
2021/11/09 11:40:48;;;;;;;0.40;0.37;;;8.90;99.60;;;;;;4978290;28;20880;-84
2021/11/09 11:43:35;;;;;;;0.37;0.33;;;8.90;99.90;;;;;;4977655;28;20519;-85
2021/11/09 11:46:02;;;;;;;0.30;0.20;;;8.80;99.70;;;;;;4977449;28;20450;-87
2021/11/09 11:48:30;;;;;;;0.30;0.27;;;8.80;99.70;;;;;;4978033;28;20437;-84
2021/11/09 11:51:13;;;;;;;0.30;0.30;;;8.80;99.70;;;;;;4977394;28;20795;-84
2021/11/09 11:53:44;;;;;;;0.30;0.30;;;8.70;99.90;;;;;;4977424;28;20469;-83
2021/11/09 11:56:13;;;;;;;0.40;0.30;;;8.80;99.90;;;;;;4977176;28;20461;-84
2021/11/09 11:58:40;;;;;;;1.47;0.30;;;8.70;99.90;;;;;;4977461;28;20437;-83
2021/11/09 12:01:07;;;;;;;0.53;0.53;;;8.80;99.90;;;;;;4977370;28;20445;-84
2021/11/09 12:03:38;;;;;;;0.30;0.30;;;8.80;99.90;;;;;;4977202;28;20504;-83
2021/11/09 12:06:22;;;;;;;0.30;0.30;;;8.70;99.90;;;;;;4977662;28;20418;-85
2021/11/09 12:08:51;;;;;;;0.40;0.30;;;8.70;99.90;;;;;;4975898;28;20500;-85
2021/11/09 12:11:41;;;;;;;0.30;0.20;;;8.70;99.90;;;;;;4977389;28;20429;-83
2021/11/09 12:14:12;;;;;;;0.30;0.30;;;8.60;99.90;;;;;;4972045;28;20469;-84
2021/11/09 12:16:57;;;;;;;0.60;0.60;;;8.60;99.90;;;;;;4977101;28;20832;-82
2021/11/09 12:19:58;;;;;;;0.30;0.20;;;8.60;99.90;;;;;;4977077;28;20438;-84
2021/11/09 12:22:38;;;;;;;0.50;0.50;;;8.50;99.90;;;;;;4976922;28;20857;-82
2021/11/09 12:25:06;;;;;;;0.30;0.20;;;8.60;99.90;;;;;;4976849;28;20461;-82
2021/11/09 12:28:05;;;;;;;0.93;0.40;;;8.60;99.90;;;;;;4976817;28;20445;-82
2021/11/09 12:30:46;;;;;;;0.53;0.53;;;8.60;99.90;;;;;;4977463;28;20445;-83
2021/11/09 12:33:16;;;;;;;0.47;0.47;;;8.60;99.90;;;;;;4977106;28;21003;-84
2021/11/09 12:35:48;;;;;;;0.30;0.30;;;8.50;99.90;;;;;;4977309;28;20719;-84
2021/11/09 12:38:18;;;;;;;0.30;0.30;;;8.60;99.90;;;;;;4976617;28;20461;-83
2021/11/09 12:40:57;;;;;;;0.30;0.30;;;8.50;99.90;;;;;;4976666;28;20890;-84
2021/11/09 12:43:42;;;;;;;0.30;0.20;;;8.60;99.90;;;;;;4976596;28;20479;-83
2021/11/09 12:46:11;;;;;;;0.50;0.50;;;8.50;99.90;;;;;;4976540;28;20452;-83
2021/11/09 12:48:41;;;;;;;0.30;0.30;;;8.50;99.90;;;;;;4976917;28;20452;-83
2021/11/09 12:51:12;;;;;;;0.40;0.30;;;8.50;99.90;;;;;;4977358;28;20453;-84
2021/11/09 12:53:40;;;;;;;0.77;0.60;;;8.50;99.90;;;;;;4976229;28;20454;-83
2021/11/09 12:56:09;;;;;;;0.40;0.30;;;8.60;99.90;;;;;;4976088;28;20485;-83
2021/11/09 12:58:45;;;;;;;0.30;0.30;;;8.60;99.90;;;;;;4976330;28;20449;-82
2021/11/09 13:01:19;;;;;;;0.30;0.30;;;8.60;99.90;;;;;;4976268;28;20445;-82
2021/11/09 13:03:59;;;;;;;0.30;0.30;;;8.60;99.90;;;;;;4976425;28;20487;-82
2021/11/09 13:06:45;;;;;;;0.30;0.30;;;8.70;99.90;;;;;;4976766;28;20453;-82
2021/11/09 13:09:19;;;;;;;0.60;0.40;;;8.60;99.90;;;;;;4976432;28;20449;-83
2021/11/09 13:11:50;;;;;;;0.63;0.30;;;8.70;99.90;;;;;;4976072;28;20505;-82
2021/11/09 13:14:17;;;;;;;0.73;0.73;;;8.60;99.90;;;;;;4975224;28;20894;-84
2021/11/09 13:16:49;;;;;;;0.30;0.30;;;8.50;99.90;;;;;;4976195;28;20445;-83
2021/11/09 13:19:18;;;;;;;1.50;0.40;;;8.60;99.90;;;;;;4975768;28;20949;-82
2021/11/09 13:21:52;;;;;;;0.30;0.30;;;8.60;99.90;;;;;;4976308;28;20449;-83
2021/11/09 13:24:20;;;;;;;0.30;0.20;;;8.70;99.90;;;;;;4975319;28;21017;-84
2021/11/09 13:26:52;;;;;;;0.40;0.40;;;8.70;99.70;;;;;;4975518;28;20505;-83
2021/11/09 13:29:19;;;;;;;0.30;0.30;;;8.60;99.70;;;;;;4976375;28;20438;-85
2021/11/09 13:31:46;;;;;;;0.77;0.77;;;8.60;99.30;;;;;;4975292;28;20443;-82
2021/11/09 13:34:14;;;;;;;0.30;0.30;;;8.60;99.30;;;;;;4975367;28;20462;-83
2021/11/09 13:36:42;;;;;;;0.33;0.33;;;8.60;99.50;;;;;;4975573;28;20453;-84
2021/11/09 13:39:11;;;;;;;0.40;0.30;;;8.60;99.80;;;;;;4975387;28;20457;-82
2021/11/09 13:41:38;;;;;;;0.70;0.70;;;8.60;99.90;;;;;;4975574;28;20485;-83
2021/11/09 13:44:10;;;;;;;0.40;0.40;;;8.60;99.90;;;;;;4988424;28;20531;-85
2021/11/09 13:46:40;;;;;;;0.30;0.30;;;8.60;99.90;;;;;;4975994;28;21016;-83
2021/11/09 13:49:09;;;;;;;0.40;0.30;;;8.60;99.50;;;;;;4993227;28;20429;-82
2021/11/09 13:51:40;;;;;;;0.40;0.30;;;8.60;99.70;;;;;;4994747;28;20433;-82
2021/11/09 13:54:17;;;;;;;0.30;0.30;;;8.60;99.70;;;;;;4994143;28;20976;-83
2021/11/09 13:56:46;;;;;;;0.30;0.20;;;8.60;99.50;;;;;;4994740;28;20444;-84
2021/11/09 13:59:15;;;;;;;0.30;0.20;;;8.60;99.30;;;;;;4994895;28;20808;-83
2021/11/09 14:01:50;;;;;;;0.30;0.30;;;8.50;99.20;;;;;;4994591;28;20444;-84
2021/11/09 14:04:42;;;;;;;0.30;0.30;;;8.50;99.20;;;;;;4994254;28;20480;-82
2021/11/09 14:07:30;;;;;;;0.30;0.20;;;8.50;99.10;;;;;;4994510;28;20524;-82
2021/11/09 14:15:51;;;;;;;0.30;0.27;;;8.40;98.90;;;;;;4981710;28;20428;-84
2021/11/09 14:18:20;;;;;;;0.30;0.20;;;8.40;99.60;;;;;;4994361;28;20444;-83
2021/11/09 14:20:52;;;;;;;0.30;0.30;;;8.40;99.50;;;;;;4994269;28;20463;-83
2021/11/09 14:23:28;;;;;;;0.30;0.30;;;8.40;99.10;;;;;;4993945;28;20519;-83
2021/11/09 14:25:58;;;;;;;0.40;0.40;;;8.40;99.00;;;;;;4993201;28;20551;-83
2021/11/09 14:28:36;;;;;;;0.30;0.20;;;8.40;98.90;;;;;;4992357;28;20437;-83
2021/11/09 14:31:19;;;;;;;0.73;0.50;;;8.40;98.60;;;;;;4993653;28;20523;-84
2021/11/09 14:33:50;;;;;;;1.07;0.47;;;8.30;98.90;;;;;;4994351;28;20508;-83
2021/11/09 14:36:30;;;;;;;0.50;0.30;;;8.40;98.80;;;;;;4994364;28;20437;-83
2021/11/09 14:39:13;;;;;;;0.40;0.30;;;8.30;98.90;;;;;;4994211;28;20480;-83
2021/11/09 14:42:08;;;;;;;0.30;0.20;;;8.30;99.30;;;;;;4993930;28;20948;-83
2021/11/09 14:45:11;;;;;;;0.30;0.23;;;8.30;98.60;;;;;;4993677;28;20904;-84
2021/11/09 14:47:44;;;;;;;0.30;0.30;;;8.30;99.00;;;;;;4989569;28;20460;-85
2021/11/09 14:50:20;;;;;;;0.30;0.30;;;8.20;98.80;;;;;;4994210;28;20457;-84
2021/11/09 14:52:47;;;;;;;3.03;1.43;;;8.20;99.10;;;;;;4993601;28;20913;-83
2021/11/09 14:55:19;;;;;;;0.40;0.40;;;8.10;99.30;;;;;;4993534;28;20984;-83
2021/11/09 14:57:49;;;;;;;0.30;0.30;;;8.10;99.10;;;;;;4993964;28;20436;-87